sensor_id;sensor_type;location;lat;lon;timestamp;P1;durP1;ratioP1;P2;durP2;ratioP2
65086;SDS011;52094;51.234;-2.310;2022-08-25T00:02:56;5.40;;;2.95;;
65086;SDS011;52094;51.234;-2.310;2022-08-25T00:07:26;4.53;;;2.30;;
65086;SDS011;52094;51.234;-2.310;2022-08-25T00:15:45;5.47;;;2.25;;
65086;SDS011;52094;51.234;-2.310;2022-08-25T00:19:30;4.07;;;2.10;;
65086;SDS011;52094;51.234;-2.310;2022-08-25T00:23:15;4.45;;;1.90;;
65086;SDS011;52094;51.234;-2.310;2022-08-25T00:27:07;4.13;;;1.95;;
65086;SDS011;52094;51.234;-2.310;2022-08-25T00:31:09;3.88;;;1.90;;
65086;SDS011;52094;51.234;-2.310;2022-08-25T00:34:57;5.30;;;2.47;;
65086;SDS011;52094;51.234;-2.310;2022-08-25T00:43:11;3.80;;;1.60;;
65086;SDS011;52094;51.234;-2.310;2022-08-25T00:47:02;6.57;;;2.33;;
65086;SDS011;52094;51.234;-2.310;2022-08-25T00:51:09;3.45;;;1.67;;
65086;SDS011;52094;51.234;-2.310;2022-08-25T01:08:38;4.43;;;1.88;;
65086;SDS011;52094;51.234;-2.310;2022-08-25T01:21:36;5.88;;;3.28;;
65086;SDS011;52094;51.234;-2.310;2022-08-25T01:26:04;6.55;;;3.10;;
65086;SDS011;52094;51.234;-2.310;2022-08-25T01:39:29;7.10;;;3.00;;
65086;SDS011;52094;51.234;-2.310;2022-08-25T01:48:04;4.43;;;2.35;;
65086;SDS011;52094;51.234;-2.310;2022-08-25T01:51:52;4.68;;;3.00;;
65086;SDS011;52094;51.234;-2.310;2022-08-25T01:55:48;5.53;;;2.50;;
65086;SDS011;52094;51.234;-2.310;2022-08-25T02:04:12;4.50;;;1.90;;
65086;SDS011;52094;51.234;-2.310;2022-08-25T02:08:04;3.53;;;1.88;;
65086;SDS011;52094;51.234;-2.310;2022-08-25T02:11:52;4.70;;;2.47;;
65086;SDS011;52094;51.234;-2.310;2022-08-25T02:16:08;6.95;;;2.70;;
65086;SDS011;52094;51.234;-2.310;2022-08-25T02:20:19;5.43;;;2.83;;
65086;SDS011;52094;51.234;-2.310;2022-08-25T02:24:25;6.03;;;2.90;;
65086;SDS011;52094;51.234;-2.310;2022-08-25T02:28:09;5.45;;;2.78;;
65086;SDS011;52094;51.234;-2.310;2022-08-25T02:32:12;6.10;;;2.45;;
65086;SDS011;52094;51.234;-2.310;2022-08-25T02:36:09;6.07;;;2.65;;
65086;SDS011;52094;51.234;-2.310;2022-08-25T02:40:11;5.38;;;2.40;;
65086;SDS011;52094;51.234;-2.310;2022-08-25T02:44:30;5.20;;;2.70;;
65086;SDS011;52094;51.234;-2.310;2022-08-25T02:48:21;6.53;;;3.50;;
65086;SDS011;52094;51.234;-2.310;2022-08-25T02:56:27;4.32;;;2.72;;
65086;SDS011;52094;51.234;-2.310;2022-08-25T03:14:56;6.68;;;4.20;;
65086;SDS011;52094;51.234;-2.310;2022-08-25T03:18:53;4.43;;;2.90;;
65086;SDS011;52094;51.234;-2.310;2022-08-25T03:22:49;5.47;;;3.78;;
65086;SDS011;52094;51.234;-2.310;2022-08-25T03:26:53;5.97;;;3.60;;
65086;SDS011;52094;51.234;-2.310;2022-08-25T03:35:36;5.13;;;2.92;;
65086;SDS011;52094;51.234;-2.310;2022-08-25T03:39:43;4.55;;;2.95;;
65086;SDS011;52094;51.234;-2.310;2022-08-25T03:44:15;6.85;;;3.20;;
65086;SDS011;52094;51.234;-2.310;2022-08-25T03:58:14;5.15;;;3.47;;
65086;SDS011;52094;51.234;-2.310;2022-08-25T04:42:22;3.95;;;2.17;;
65086;SDS011;52094;51.234;-2.310;2022-08-25T04:56:23;3.95;;;2.30;;
65086;SDS011;52094;51.234;-2.310;2022-08-25T05:00:39;4.95;;;1.83;;
65086;SDS011;52094;51.234;-2.310;2022-08-25T05:04:29;3.13;;;1.83;;
65086;SDS011;52094;51.234;-2.310;2022-08-25T05:08:53;2.90;;;1.27;;
65086;SDS011;52094;51.234;-2.310;2022-08-25T05:13:11;2.83;;;1.20;;
65086;SDS011;52094;51.234;-2.310;2022-08-25T07:43:34;2.85;;;1.50;;
65086;SDS011;52094;51.234;-2.310;2022-08-25T07:52:24;2.58;;;1.77;;
65086;SDS011;52094;51.234;-2.310;2022-08-25T07:56:42;2.20;;;1.40;;
65086;SDS011;52094;51.234;-2.310;2022-08-25T08:00:48;2.92;;;1.63;;
65086;SDS011;52094;51.234;-2.310;2022-08-25T08:20:16;3.13;;;1.67;;
65086;SDS011;52094;51.234;-2.310;2022-08-25T08:29:01;3.20;;;1.80;;
65086;SDS011;52094;51.234;-2.310;2022-08-25T08:34:03;3.03;;;1.63;;
65086;SDS011;52094;51.234;-2.310;2022-08-25T08:38:48;2.58;;;1.50;;
65086;SDS011;52094;51.234;-2.310;2022-08-25T08:51:53;4.20;;;2.13;;
65086;SDS011;52094;51.234;-2.310;2022-08-25T09:05:55;4.60;;;2.50;;
65086;SDS011;52094;51.234;-2.310;2022-08-25T09:38:28;5.15;;;2.60;;
65086;SDS011;52094;51.234;-2.310;2022-08-25T09:47:06;5.32;;;3.00;;
65086;SDS011;52094;51.234;-2.310;2022-08-25T09:51:20;4.20;;;2.63;;
65086;SDS011;52094;51.234;-2.310;2022-08-25T09:55:45;4.88;;;3.03;;
65086;SDS011;52094;51.234;-2.310;2022-08-25T11:04:17;6.63;;;4.78;;
65086;SDS011;52094;51.234;-2.310;2022-08-25T11:32:46;5.10;;;3.60;;
65086;SDS011;52094;51.234;-2.310;2022-08-25T13:16:35;3.03;;;1.83;;
65086;SDS011;52094;51.234;-2.310;2022-08-25T13:20:31;2.75;;;1.98;;
65086;SDS011;52094;51.234;-2.310;2022-08-25T13:24:39;2.83;;;1.70;;
65086;SDS011;52094;51.234;-2.310;2022-08-25T13:29:48;2.90;;;1.58;;
65086;SDS011;52094;51.234;-2.310;2022-08-25T13:34:19;3.15;;;1.67;;
65086;SDS011;52094;51.234;-2.310;2022-08-25T13:38:25;3.00;;;1.30;;
65086;SDS011;52094;51.234;-2.310;2022-08-25T13:42:12;3.63;;;1.70;;
65086;SDS011;52094;51.234;-2.310;2022-08-25T13:46:43;2.05;;;1.20;;
65086;SDS011;52094;51.234;-2.310;2022-08-25T13:51:29;1.95;;;1.20;;
65086;SDS011;52094;51.234;-2.310;2022-08-25T14:04:22;1.98;;;1.35;;
65086;SDS011;52094;51.234;-2.310;2022-08-25T14:22:18;2.53;;;1.52;;
65086;SDS011;52094;51.234;-2.310;2022-08-25T14:26:37;3.17;;;1.40;;
65086;SDS011;52094;51.234;-2.310;2022-08-25T14:30:55;2.90;;;1.25;;
65086;SDS011;52094;51.234;-2.310;2022-08-25T14:35:48;2.42;;;1.35;;
65086;SDS011;52094;51.234;-2.310;2022-08-25T14:49:35;2.22;;;1.40;;
65086;SDS011;52094;51.234;-2.310;2022-08-25T15:42:28;2.67;;;1.63;;
65086;SDS011;52094;51.234;-2.310;2022-08-25T15:46:23;3.17;;;1.77;;
65086;SDS011;52094;51.234;-2.310;2022-08-25T15:50:52;3.00;;;1.67;;
65086;SDS011;52094;51.234;-2.310;2022-08-25T15:59:50;3.58;;;2.15;;
65086;SDS011;52094;51.234;-2.310;2022-08-25T16:14:21;5.30;;;1.65;;
65086;SDS011;52094;51.234;-2.310;2022-08-25T16:33:00;2.78;;;1.50;;
65086;SDS011;52094;51.234;-2.310;2022-08-25T16:52:21;2.90;;;1.65;;
65086;SDS011;52094;51.234;-2.310;2022-08-25T16:56:43;3.15;;;1.60;;
65086;SDS011;52094;51.234;-2.310;2022-08-25T17:01:11;2.85;;;1.70;;
65086;SDS011;52094;51.234;-2.310;2022-08-25T17:05:53;3.38;;;1.40;;
65086;SDS011;52094;51.234;-2.310;2022-08-25T17:15:44;2.63;;;1.40;;
65086;SDS011;52094;51.234;-2.310;2022-08-25T17:19:32;3.25;;;1.50;;
65086;SDS011;52094;51.234;-2.310;2022-08-25T17:50:56;6.32;;;1.50;;
65086;SDS011;52094;51.234;-2.310;2022-08-25T17:54:59;6.35;;;1.52;;
65086;SDS011;52094;51.234;-2.310;2022-08-25T18:29:59;4.25;;;1.20;;
65086;SDS011;52094;51.234;-2.310;2022-08-25T18:38:13;4.25;;;1.10;;
65086;SDS011;52094;51.234;-2.310;2022-08-25T18:42:36;5.80;;;1.50;;
65086;SDS011;52094;51.234;-2.310;2022-08-25T18:46:26;2.58;;;1.08;;
65086;SDS011;52094;51.234;-2.310;2022-08-25T18:50:12;4.57;;;1.38;;
65086;SDS011;52094;51.234;-2.310;2022-08-25T18:54:03;6.38;;;1.73;;
65086;SDS011;52094;51.234;-2.310;2022-08-25T18:58:19;6.82;;;2.60;;
65086;SDS011;52094;51.234;-2.310;2022-08-25T19:02:07;7.07;;;2.22;;
65086;SDS011;52094;51.234;-2.310;2022-08-25T19:05:59;4.50;;;2.00;;
65086;SDS011;52094;51.234;-2.310;2022-08-25T19:09:56;6.05;;;1.85;;
65086;SDS011;52094;51.234;-2.310;2022-08-25T19:13:40;9.82;;;1.85;;
65086;SDS011;52094;51.234;-2.310;2022-08-25T19:17:27;6.03;;;1.70;;
65086;SDS011;52094;51.234;-2.310;2022-08-25T19:21:25;5.03;;;1.50;;
65086;SDS011;52094;51.234;-2.310;2022-08-25T19:25:08;4.57;;;1.80;;
65086;SDS011;52094;51.234;-2.310;2022-08-25T19:28:54;6.50;;;1.77;;
65086;SDS011;52094;51.234;-2.310;2022-08-25T19:32:51;8.95;;;2.03;;
65086;SDS011;52094;51.234;-2.310;2022-08-25T19:42:50;4.75;;;1.48;;
65086;SDS011;52094;51.234;-2.310;2022-08-25T19:47:18;5.25;;;1.75;;
65086;SDS011;52094;51.234;-2.310;2022-08-25T20:39:14;8.40;;;1.87;;
65086;SDS011;52094;51.234;-2.310;2022-08-25T20:43:05;4.32;;;1.40;;
65086;SDS011;52094;51.234;-2.310;2022-08-25T20:47:24;4.28;;;1.48;;
65086;SDS011;52094;51.234;-2.310;2022-08-25T20:51:19;6.22;;;1.65;;
65086;SDS011;52094;51.234;-2.310;2022-08-25T20:55:24;6.22;;;1.67;;
65086;SDS011;52094;51.234;-2.310;2022-08-25T20:59:09;4.63;;;1.77;;
65086;SDS011;52094;51.234;-2.310;2022-08-25T21:03:00;4.65;;;1.48;;
65086;SDS011;52094;51.234;-2.310;2022-08-25T21:07:10;5.75;;;2.00;;
65086;SDS011;52094;51.234;-2.310;2022-08-25T21:11:06;3.22;;;1.48;;
65086;SDS011;52094;51.234;-2.310;2022-08-25T21:14:53;6.97;;;1.38;;
65086;SDS011;52094;51.234;-2.310;2022-08-25T21:18:37;4.50;;;1.27;;
65086;SDS011;52094;51.234;-2.310;2022-08-25T21:22:28;6.50;;;1.63;;
65086;SDS011;52094;51.234;-2.310;2022-08-25T21:26:23;2.33;;;0.85;;
65086;SDS011;52094;51.234;-2.310;2022-08-25T21:30:15;7.97;;;1.80;;
65086;SDS011;52094;51.234;-2.310;2022-08-25T21:35:13;6.95;;;2.65;;
65086;SDS011;52094;51.234;-2.310;2022-08-25T21:39:16;7.10;;;1.77;;
65086;SDS011;52094;51.234;-2.310;2022-08-25T21:43:26;5.80;;;1.75;;
65086;SDS011;52094;51.234;-2.310;2022-08-25T21:47:27;6.20;;;1.65;;
65086;SDS011;52094;51.234;-2.310;2022-08-25T21:51:16;14.75;;;2.03;;
65086;SDS011;52094;51.234;-2.310;2022-08-25T21:55:13;5.57;;;1.50;;
65086;SDS011;52094;51.234;-2.310;2022-08-25T22:04:06;4.05;;;1.30;;
65086;SDS011;52094;51.234;-2.310;2022-08-25T22:08:08;5.78;;;1.63;;
65086;SDS011;52094;51.234;-2.310;2022-08-25T22:28:27;5.95;;;1.60;;
65086;SDS011;52094;51.234;-2.310;2022-08-25T22:36:55;6.53;;;1.77;;
65086;SDS011;52094;51.234;-2.310;2022-08-25T22:40:43;5.30;;;1.95;;
65086;SDS011;52094;51.234;-2.310;2022-08-25T22:44:29;8.32;;;2.00;;
65086;SDS011;52094;51.234;-2.310;2022-08-25T22:48:15;6.95;;;2.17;;
65086;SDS011;52094;51.234;-2.310;2022-08-25T22:52:21;6.03;;;1.70;;
65086;SDS011;52094;51.234;-2.310;2022-08-25T22:56:21;8.27;;;2.20;;
65086;SDS011;52094;51.234;-2.310;2022-08-25T23:00:21;6.38;;;2.40;;
65086;SDS011;52094;51.234;-2.310;2022-08-25T23:04:31;6.72;;;2.03;;
65086;SDS011;52094;51.234;-2.310;2022-08-25T23:08:42;7.93;;;1.90;;
65086;SDS011;52094;51.234;-2.310;2022-08-25T23:12:58;6.20;;;2.38;;
65086;SDS011;52094;51.234;-2.310;2022-08-25T23:16:47;4.32;;;1.83;;
65086;SDS011;52094;51.234;-2.310;2022-08-25T23:20:44;6.15;;;1.75;;
65086;SDS011;52094;51.234;-2.310;2022-08-25T23:24:55;6.43;;;2.42;;
65086;SDS011;52094;51.234;-2.310;2022-08-25T23:28:51;6.80;;;2.25;;
65086;SDS011;52094;51.234;-2.310;2022-08-25T23:32:42;6.22;;;2.15;;
65086;SDS011;52094;51.234;-2.310;2022-08-25T23:37:26;6.80;;;2.40;;
65086;SDS011;52094;51.234;-2.310;2022-08-25T23:41:46;5.07;;;1.77;;
65086;SDS011;52094;51.234;-2.310;2022-08-25T23:50:53;6.03;;;1.85;;
65086;SDS011;52094;51.234;-2.310;2022-08-25T23:54:48;6.10;;;2.00;;
65086;SDS011;52094;51.234;-2.310;2022-08-25T23:58:38;10.32;;;5.25;;
